sensor_id;sensor_type;location;lat;lon;timestamp;P1;durP1;ratioP1;P2;durP2;ratioP2
64500;SDS011;50874;24.150;-110.320;2023-03-01T00:02:21;11.90;;;1.90;;
64500;SDS011;50874;24.150;-110.320;2023-03-01T00:04:47;47.25;;;5.53;;
64500;SDS011;50874;24.150;-110.320;2023-03-01T00:07:14;31.95;;;4.25;;
64500;SDS011;50874;24.150;-110.320;2023-03-01T00:09:40;6.57;;;1.05;;
64500;SDS011;50874;24.150;-110.320;2023-03-01T00:12:07;26.58;;;2.65;;
64500;SDS011;50874;24.150;-110.320;2023-03-01T00:14:35;51.88;;;7.28;;
64500;SDS011;50874;24.150;-110.320;2023-03-01T00:17:01;18.70;;;3.10;;
64500;SDS011;50874;24.150;-110.320;2023-03-01T00:19:28;6.40;;;1.55;;
64500;SDS011;50874;24.150;-110.320;2023-03-01T00:21:54;45.38;;;5.03;;
64500;SDS011;50874;24.150;-110.320;2023-03-01T00:24:21;23.83;;;6.82;;
64500;SDS011;50874;24.150;-110.320;2023-03-01T00:26:47;12.73;;;1.88;;
64500;SDS011;50874;24.150;-110.320;2023-03-01T00:29:15;6.18;;;0.93;;
64500;SDS011;50874;24.150;-110.320;2023-03-01T00:31:41;46.10;;;5.38;;
64500;SDS011;50874;24.150;-110.320;2023-03-01T00:34:08;21.98;;;1.70;;
64500;SDS011;50874;24.150;-110.320;2023-03-01T00:36:36;62.55;;;7.63;;
64500;SDS011;50874;24.150;-110.320;2023-03-01T00:39:04;40.03;;;4.97;;
64500;SDS011;50874;24.150;-110.320;2023-03-01T00:41:31;12.63;;;1.95;;
64500;SDS011;50874;24.150;-110.320;2023-03-01T00:43:59;22.98;;;6.95;;
64500;SDS011;50874;24.150;-110.320;2023-03-01T00:46:26;14.43;;;4.43;;
64500;SDS011;50874;24.150;-110.320;2023-03-01T00:48:55;20.35;;;4.90;;
64500;SDS011;50874;24.150;-110.320;2023-03-01T00:51:26;37.20;;;6.85;;
64500;SDS011;50874;24.150;-110.320;2023-03-01T00:53:54;23.05;;;3.78;;
64500;SDS011;50874;24.150;-110.320;2023-03-01T00:56:22;47.38;;;7.35;;
64500;SDS011;50874;24.150;-110.320;2023-03-01T00:58:49;26.65;;;3.63;;
64500;SDS011;50874;24.150;-110.320;2023-03-01T01:01:25;26.13;;;4.28;;
64500;SDS011;50874;24.150;-110.320;2023-03-01T01:06:32;60.33;;;7.70;;
64500;SDS011;50874;24.150;-110.320;2023-03-01T01:09:04;50.75;;;4.70;;
64500;SDS011;50874;24.150;-110.320;2023-03-01T01:11:32;29.85;;;4.60;;
64500;SDS011;50874;24.150;-110.320;2023-03-01T01:14:01;64.60;;;6.60;;
64500;SDS011;50874;24.150;-110.320;2023-03-01T01:16:28;48.22;;;4.05;;
64500;SDS011;50874;24.150;-110.320;2023-03-01T01:18:55;42.95;;;6.10;;
64500;SDS011;50874;24.150;-110.320;2023-03-01T01:21:23;79.80;;;8.02;;
64500;SDS011;50874;24.150;-110.320;2023-03-01T01:23:51;65.53;;;5.68;;
64500;SDS011;50874;24.150;-110.320;2023-03-01T01:26:36;34.88;;;4.03;;
64500;SDS011;50874;24.150;-110.320;2023-03-01T01:29:03;43.25;;;5.43;;
64500;SDS011;50874;24.150;-110.320;2023-03-01T01:31:31;64.32;;;6.63;;
64500;SDS011;50874;24.150;-110.320;2023-03-01T01:34:01;54.95;;;6.10;;
64500;SDS011;50874;24.150;-110.320;2023-03-01T01:36:30;118.03;;;11.32;;
64500;SDS011;50874;24.150;-110.320;2023-03-01T01:39:00;32.83;;;3.65;;
64500;SDS011;50874;24.150;-110.320;2023-03-01T01:41:27;22.70;;;2.88;;
64500;SDS011;50874;24.150;-110.320;2023-03-01T01:49:59;24.85;;;2.42;;
64500;SDS011;50874;24.150;-110.320;2023-03-01T01:52:34;23.92;;;3.92;;
64500;SDS011;50874;24.150;-110.320;2023-03-01T01:55:07;32.90;;;4.63;;
64500;SDS011;50874;24.150;-110.320;2023-03-01T02:00:14;18.98;;;2.83;;
64500;SDS011;50874;24.150;-110.320;2023-03-01T02:02:47;35.05;;;4.15;;
64500;SDS011;50874;24.150;-110.320;2023-03-01T02:05:25;41.40;;;4.45;;
64500;SDS011;50874;24.150;-110.320;2023-03-01T02:07:58;24.83;;;3.22;;
64500;SDS011;50874;24.150;-110.320;2023-03-01T02:10:25;52.38;;;6.93;;
64500;SDS011;50874;24.150;-110.320;2023-03-01T02:12:53;61.72;;;7.35;;
64500;SDS011;50874;24.150;-110.320;2023-03-01T02:15:24;11.57;;;1.83;;
64500;SDS011;50874;24.150;-110.320;2023-03-01T02:17:52;29.90;;;3.92;;
64500;SDS011;50874;24.150;-110.320;2023-03-01T02:20:36;5.18;;;1.52;;
64500;SDS011;50874;24.150;-110.320;2023-03-01T02:23:22;120.85;;;15.18;;
64500;SDS011;50874;24.150;-110.320;2023-03-01T02:28:48;15.85;;;2.00;;
64500;SDS011;50874;24.150;-110.320;2023-03-01T02:31:16;30.42;;;4.10;;
64500;SDS011;50874;24.150;-110.320;2023-03-01T02:34:03;31.83;;;3.30;;
64500;SDS011;50874;24.150;-110.320;2023-03-01T02:36:37;53.90;;;6.60;;
64500;SDS011;50874;24.150;-110.320;2023-03-01T02:39:34;18.05;;;2.70;;
64500;SDS011;50874;24.150;-110.320;2023-03-01T02:42:07;11.25;;;2.15;;
64500;SDS011;50874;24.150;-110.320;2023-03-01T02:44:42;24.42;;;3.45;;
64500;SDS011;50874;24.150;-110.320;2023-03-01T02:47:11;36.97;;;3.25;;
64500;SDS011;50874;24.150;-110.320;2023-03-01T02:49:40;18.30;;;3.25;;
64500;SDS011;50874;24.150;-110.320;2023-03-01T02:52:20;31.83;;;4.03;;
64500;SDS011;50874;24.150;-110.320;2023-03-01T02:55:14;17.15;;;2.33;;
64500;SDS011;50874;24.150;-110.320;2023-03-01T02:57:44;14.27;;;2.60;;
64500;SDS011;50874;24.150;-110.320;2023-03-01T03:00:15;40.10;;;4.32;;
64500;SDS011;50874;24.150;-110.320;2023-03-01T03:02:46;22.00;;;3.58;;
64500;SDS011;50874;24.150;-110.320;2023-03-01T03:05:23;28.90;;;4.20;;
64500;SDS011;50874;24.150;-110.320;2023-03-01T03:07:52;35.00;;;4.05;;
64500;SDS011;50874;24.150;-110.320;2023-03-01T03:10:21;52.33;;;6.75;;
64500;SDS011;50874;24.150;-110.320;2023-03-01T03:12:50;45.90;;;5.97;;
64500;SDS011;50874;24.150;-110.320;2023-03-01T03:15:18;68.75;;;8.35;;
64500;SDS011;50874;24.150;-110.320;2023-03-01T03:17:46;84.22;;;8.02;;
64500;SDS011;50874;24.150;-110.320;2023-03-01T03:20:13;95.10;;;11.07;;
64500;SDS011;50874;24.150;-110.320;2023-03-01T03:22:48;150.68;;;17.35;;
64500;SDS011;50874;24.150;-110.320;2023-03-01T03:25:17;114.57;;;15.15;;
64500;SDS011;50874;24.150;-110.320;2023-03-01T03:27:45;127.22;;;14.85;;
64500;SDS011;50874;24.150;-110.320;2023-03-01T03:30:15;149.38;;;16.35;;
64500;SDS011;50874;24.150;-110.320;2023-03-01T03:32:44;131.23;;;15.30;;
64500;SDS011;50874;24.150;-110.320;2023-03-01T03:35:22;85.10;;;10.82;;
64500;SDS011;50874;24.150;-110.320;2023-03-01T03:38:04;57.47;;;7.82;;
64500;SDS011;50874;24.150;-110.320;2023-03-01T03:40:41;77.88;;;8.13;;
64500;SDS011;50874;24.150;-110.320;2023-03-01T03:43:10;60.97;;;8.80;;
64500;SDS011;50874;24.150;-110.320;2023-03-01T03:45:43;52.15;;;5.70;;
64500;SDS011;50874;24.150;-110.320;2023-03-01T03:48:10;77.10;;;7.35;;
64500;SDS011;50874;24.150;-110.320;2023-03-01T03:50:37;57.45;;;6.35;;
64500;SDS011;50874;24.150;-110.320;2023-03-01T03:53:07;74.07;;;7.70;;
64500;SDS011;50874;24.150;-110.320;2023-03-01T03:55:35;97.20;;;9.70;;
64500;SDS011;50874;24.150;-110.320;2023-03-01T03:58:04;55.35;;;6.15;;
64500;SDS011;50874;24.150;-110.320;2023-03-01T04:00:36;53.42;;;6.55;;
64500;SDS011;50874;24.150;-110.320;2023-03-01T04:03:04;60.58;;;8.10;;
64500;SDS011;50874;24.150;-110.320;2023-03-01T04:05:31;39.88;;;6.32;;
64500;SDS011;50874;24.150;-110.320;2023-03-01T04:07:58;51.33;;;6.70;;
64500;SDS011;50874;24.150;-110.320;2023-03-01T04:10:27;40.42;;;5.13;;
64500;SDS011;50874;24.150;-110.320;2023-03-01T04:12:55;62.40;;;6.97;;
64500;SDS011;50874;24.150;-110.320;2023-03-01T04:15:22;52.75;;;7.38;;
64500;SDS011;50874;24.150;-110.320;2023-03-01T04:17:52;54.33;;;6.18;;
64500;SDS011;50874;24.150;-110.320;2023-03-01T04:20:21;104.70;;;11.10;;
64500;SDS011;50874;24.150;-110.320;2023-03-01T04:23:00;76.80;;;8.02;;
64500;SDS011;50874;24.150;-110.320;2023-03-01T04:25:51;47.55;;;6.07;;
64500;SDS011;50874;24.150;-110.320;2023-03-01T04:30:52;76.18;;;9.20;;
64500;SDS011;50874;24.150;-110.320;2023-03-01T04:33:20;52.85;;;7.45;;
64500;SDS011;50874;24.150;-110.320;2023-03-01T04:35:47;44.70;;;6.05;;
64500;SDS011;50874;24.150;-110.320;2023-03-01T04:38:14;49.47;;;6.47;;
64500;SDS011;50874;24.150;-110.320;2023-03-01T04:40:42;64.65;;;7.35;;
64500;SDS011;50874;24.150;-110.320;2023-03-01T04:43:09;49.83;;;5.28;;
64500;SDS011;50874;24.150;-110.320;2023-03-01T04:45:38;48.10;;;6.00;;
64500;SDS011;50874;24.150;-110.320;2023-03-01T04:48:05;42.72;;;5.22;;
64500;SDS011;50874;24.150;-110.320;2023-03-01T04:50:31;32.10;;;5.47;;
64500;SDS011;50874;24.150;-110.320;2023-03-01T04:52:58;75.78;;;11.63;;
64500;SDS011;50874;24.150;-110.320;2023-03-01T04:55:25;62.47;;;6.07;;
64500;SDS011;50874;24.150;-110.320;2023-03-01T04:57:53;39.40;;;4.38;;
64500;SDS011;50874;24.150;-110.320;2023-03-01T05:00:21;31.67;;;4.78;;
64500;SDS011;50874;24.150;-110.320;2023-03-01T05:02:59;41.05;;;4.50;;
64500;SDS011;50874;24.150;-110.320;2023-03-01T05:05:27;48.22;;;6.13;;
64500;SDS011;50874;24.150;-110.320;2023-03-01T05:07:58;36.38;;;5.38;;
64500;SDS011;50874;24.150;-110.320;2023-03-01T05:10:26;55.55;;;5.72;;
64500;SDS011;50874;24.150;-110.320;2023-03-01T05:12:57;49.03;;;6.50;;
64500;SDS011;50874;24.150;-110.320;2023-03-01T05:15:25;43.95;;;6.22;;
64500;SDS011;50874;24.150;-110.320;2023-03-01T05:17:57;41.28;;;6.05;;
64500;SDS011;50874;24.150;-110.320;2023-03-01T05:20:28;39.05;;;5.18;;
64500;SDS011;50874;24.150;-110.320;2023-03-01T05:22:57;42.60;;;5.10;;
64500;SDS011;50874;24.150;-110.320;2023-03-01T05:25:24;40.55;;;5.60;;
64500;SDS011;50874;24.150;-110.320;2023-03-01T05:27:52;28.73;;;3.50;;
64500;SDS011;50874;24.150;-110.320;2023-03-01T05:30:18;27.30;;;3.25;;
64500;SDS011;50874;24.150;-110.320;2023-03-01T05:32:46;28.40;;;3.50;;
64500;SDS011;50874;24.150;-110.320;2023-03-01T05:35:15;26.55;;;4.45;;
64500;SDS011;50874;24.150;-110.320;2023-03-01T05:37:44;36.63;;;4.05;;
64500;SDS011;50874;24.150;-110.320;2023-03-01T05:40:13;40.60;;;4.43;;
64500;SDS011;50874;24.150;-110.320;2023-03-01T05:45:14;61.17;;;7.47;;
64500;SDS011;50874;24.150;-110.320;2023-03-01T05:47:43;49.45;;;5.57;;
64500;SDS011;50874;24.150;-110.320;2023-03-01T05:50:11;51.08;;;5.97;;
64500;SDS011;50874;24.150;-110.320;2023-03-01T05:52:46;38.63;;;4.85;;
64500;SDS011;50874;24.150;-110.320;2023-03-01T05:55:18;34.55;;;4.15;;
64500;SDS011;50874;24.150;-110.320;2023-03-01T05:57:45;19.75;;;2.42;;
64500;SDS011;50874;24.150;-110.320;2023-03-01T06:00:13;30.45;;;3.42;;
64500;SDS011;50874;24.150;-110.320;2023-03-01T06:02:40;32.40;;;4.25;;
64500;SDS011;50874;24.150;-110.320;2023-03-01T06:05:07;50.00;;;4.22;;
64500;SDS011;50874;24.150;-110.320;2023-03-01T06:07:35;53.97;;;7.70;;
64500;SDS011;50874;24.150;-110.320;2023-03-01T06:10:03;28.77;;;4.45;;
64500;SDS011;50874;24.150;-110.320;2023-03-01T06:12:31;19.38;;;3.42;;
64500;SDS011;50874;24.150;-110.320;2023-03-01T06:14:59;37.05;;;7.82;;
64500;SDS011;50874;24.150;-110.320;2023-03-01T06:17:25;26.65;;;4.15;;
64500;SDS011;50874;24.150;-110.320;2023-03-01T06:19:55;13.20;;;2.75;;
64500;SDS011;50874;24.150;-110.320;2023-03-01T06:22:21;23.75;;;4.10;;
64500;SDS011;50874;24.150;-110.320;2023-03-01T06:24:48;26.08;;;3.20;;
64500;SDS011;50874;24.150;-110.320;2023-03-01T06:27:15;18.92;;;1.90;;
64500;SDS011;50874;24.150;-110.320;2023-03-01T06:29:41;16.38;;;2.22;;
64500;SDS011;50874;24.150;-110.320;2023-03-01T06:32:08;13.20;;;2.03;;
64500;SDS011;50874;24.150;-110.320;2023-03-01T06:34:34;18.50;;;1.83;;
64500;SDS011;50874;24.150;-110.320;2023-03-01T06:37:01;16.77;;;2.15;;
64500;SDS011;50874;24.150;-110.320;2023-03-01T06:39:30;12.13;;;1.98;;
64500;SDS011;50874;24.150;-110.320;2023-03-01T06:41:58;17.85;;;2.38;;
64500;SDS011;50874;24.150;-110.320;2023-03-01T06:44:25;23.00;;;3.33;;
64500;SDS011;50874;24.150;-110.320;2023-03-01T06:46:52;16.30;;;2.97;;
64500;SDS011;50874;24.150;-110.320;2023-03-01T06:49:18;21.67;;;2.72;;
64500;SDS011;50874;24.150;-110.320;2023-03-01T06:51:45;28.65;;;2.97;;
64500;SDS011;50874;24.150;-110.320;2023-03-01T06:54:11;18.45;;;3.80;;
64500;SDS011;50874;24.150;-110.320;2023-03-01T06:56:38;48.20;;;5.57;;
64500;SDS011;50874;24.150;-110.320;2023-03-01T06:59:05;68.95;;;8.18;;
64500;SDS011;50874;24.150;-110.320;2023-03-01T07:01:31;38.13;;;5.38;;
64500;SDS011;50874;24.150;-110.320;2023-03-01T07:03:58;24.73;;;3.70;;
64500;SDS011;50874;24.150;-110.320;2023-03-01T07:06:24;11.90;;;2.47;;
64500;SDS011;50874;24.150;-110.320;2023-03-01T07:08:50;26.08;;;2.97;;
64500;SDS011;50874;24.150;-110.320;2023-03-01T07:11:17;15.60;;;2.70;;
64500;SDS011;50874;24.150;-110.320;2023-03-01T07:13:43;29.08;;;2.80;;
64500;SDS011;50874;24.150;-110.320;2023-03-01T07:16:10;31.98;;;4.85;;
64500;SDS011;50874;24.150;-110.320;2023-03-01T07:18:36;20.33;;;2.97;;
64500;SDS011;50874;24.150;-110.320;2023-03-01T07:21:04;29.20;;;3.88;;
64500;SDS011;50874;24.150;-110.320;2023-03-01T07:23:34;25.27;;;2.63;;
64500;SDS011;50874;24.150;-110.320;2023-03-01T07:26:00;18.27;;;2.45;;
64500;SDS011;50874;24.150;-110.320;2023-03-01T07:28:27;14.07;;;2.55;;
64500;SDS011;50874;24.150;-110.320;2023-03-01T07:30:54;8.68;;;1.67;;
64500;SDS011;50874;24.150;-110.320;2023-03-01T07:33:20;23.40;;;2.75;;
64500;SDS011;50874;24.150;-110.320;2023-03-01T07:35:47;17.75;;;2.08;;
64500;SDS011;50874;24.150;-110.320;2023-03-01T07:38:13;20.08;;;1.92;;
64500;SDS011;50874;24.150;-110.320;2023-03-01T07:40:40;10.77;;;1.42;;
64500;SDS011;50874;24.150;-110.320;2023-03-01T07:43:06;11.80;;;1.60;;
64500;SDS011;50874;24.150;-110.320;2023-03-01T07:45:33;16.40;;;1.90;;
64500;SDS011;50874;24.150;-110.320;2023-03-01T07:47:59;6.32;;;1.00;;
64500;SDS011;50874;24.150;-110.320;2023-03-01T07:50:26;9.00;;;1.95;;
64500;SDS011;50874;24.150;-110.320;2023-03-01T07:52:52;7.50;;;1.13;;
64500;SDS011;50874;24.150;-110.320;2023-03-01T07:55:19;17.35;;;1.38;;
64500;SDS011;50874;24.150;-110.320;2023-03-01T07:57:45;4.85;;;0.73;;
64500;SDS011;50874;24.150;-110.320;2023-03-01T08:00:12;15.02;;;2.28;;
64500;SDS011;50874;24.150;-110.320;2023-03-01T08:02:39;8.70;;;1.70;;
64500;SDS011;50874;24.150;-110.320;2023-03-01T08:05:07;7.85;;;1.20;;
64500;SDS011;50874;24.150;-110.320;2023-03-01T08:07:35;7.07;;;1.60;;
64500;SDS011;50874;24.150;-110.320;2023-03-01T08:10:02;17.92;;;2.05;;
64500;SDS011;50874;24.150;-110.320;2023-03-01T08:12:29;19.50;;;3.70;;
64500;SDS011;50874;24.150;-110.320;2023-03-01T08:14:55;10.20;;;1.67;;
64500;SDS011;50874;24.150;-110.320;2023-03-01T08:17:22;9.10;;;1.55;;
64500;SDS011;50874;24.150;-110.320;2023-03-01T08:19:49;10.88;;;1.50;;
64500;SDS011;50874;24.150;-110.320;2023-03-01T08:22:15;15.52;;;1.50;;
64500;SDS011;50874;24.150;-110.320;2023-03-01T08:24:42;10.18;;;1.42;;
64500;SDS011;50874;24.150;-110.320;2023-03-01T08:27:08;15.02;;;2.38;;
64500;SDS011;50874;24.150;-110.320;2023-03-01T08:29:35;22.35;;;2.90;;
64500;SDS011;50874;24.150;-110.320;2023-03-01T08:32:01;24.40;;;2.75;;
64500;SDS011;50874;24.150;-110.320;2023-03-01T08:34:28;16.38;;;2.58;;
64500;SDS011;50874;24.150;-110.320;2023-03-01T08:36:56;22.17;;;3.28;;
64500;SDS011;50874;24.150;-110.320;2023-03-01T08:39:22;22.02;;;4.45;;
64500;SDS011;50874;24.150;-110.320;2023-03-01T08:41:49;36.55;;;4.80;;
64500;SDS011;50874;24.150;-110.320;2023-03-01T08:44:15;31.23;;;5.45;;
64500;SDS011;50874;24.150;-110.320;2023-03-01T08:46:42;31.20;;;5.47;;
64500;SDS011;50874;24.150;-110.320;2023-03-01T08:49:11;26.60;;;3.58;;
64500;SDS011;50874;24.150;-110.320;2023-03-01T08:51:43;28.88;;;4.03;;
64500;SDS011;50874;24.150;-110.320;2023-03-01T08:54:11;15.50;;;2.40;;
64500;SDS011;50874;24.150;-110.320;2023-03-01T08:56:47;26.55;;;4.55;;
64500;SDS011;50874;24.150;-110.320;2023-03-01T08:59:15;18.92;;;3.13;;
64500;SDS011;50874;24.150;-110.320;2023-03-01T09:01:43;20.23;;;3.42;;
64500;SDS011;50874;24.150;-110.320;2023-03-01T09:04:10;14.27;;;2.08;;
64500;SDS011;50874;24.150;-110.320;2023-03-01T09:06:38;14.27;;;1.60;;
64500;SDS011;50874;24.150;-110.320;2023-03-01T09:09:05;8.90;;;1.40;;
64500;SDS011;50874;24.150;-110.320;2023-03-01T09:11:39;4.03;;;1.35;;
64500;SDS011;50874;24.150;-110.320;2023-03-01T09:14:06;13.95;;;1.83;;
64500;SDS011;50874;24.150;-110.320;2023-03-01T09:16:32;6.60;;;0.68;;
64500;SDS011;50874;24.150;-110.320;2023-03-01T09:19:01;3.85;;;0.90;;
64500;SDS011;50874;24.150;-110.320;2023-03-01T09:21:28;3.72;;;0.65;;
64500;SDS011;50874;24.150;-110.320;2023-03-01T09:23:55;8.93;;;0.90;;
64500;SDS011;50874;24.150;-110.320;2023-03-01T09:26:23;7.53;;;1.25;;
64500;SDS011;50874;24.150;-110.320;2023-03-01T09:28:51;6.55;;;1.10;;
64500;SDS011;50874;24.150;-110.320;2023-03-01T09:31:20;9.43;;;1.02;;
64500;SDS011;50874;24.150;-110.320;2023-03-01T09:33:48;6.03;;;0.80;;
64500;SDS011;50874;24.150;-110.320;2023-03-01T09:36:17;4.53;;;1.17;;
64500;SDS011;50874;24.150;-110.320;2023-03-01T09:38:46;9.13;;;1.10;;
64500;SDS011;50874;24.150;-110.320;2023-03-01T09:47:12;5.68;;;0.73;;
64500;SDS011;50874;24.150;-110.320;2023-03-01T09:55:12;8.32;;;0.90;;
64500;SDS011;50874;24.150;-110.320;2023-03-01T09:57:45;4.55;;;0.85;;
64500;SDS011;50874;24.150;-110.320;2023-03-01T10:08:34;2.65;;;1.02;;
64500;SDS011;50874;24.150;-110.320;2023-03-01T10:11:29;3.53;;;0.70;;
64500;SDS011;50874;24.150;-110.320;2023-03-01T10:14:25;2.90;;;0.60;;
64500;SDS011;50874;24.150;-110.320;2023-03-01T10:16:58;1.27;;;0.30;;
64500;SDS011;50874;24.150;-110.320;2023-03-01T10:19:49;1.15;;;0.52;;
64500;SDS011;50874;24.150;-110.320;2023-03-01T10:22:20;5.43;;;0.98;;
64500;SDS011;50874;24.150;-110.320;2023-03-01T10:24:50;6.15;;;1.10;;
64500;SDS011;50874;24.150;-110.320;2023-03-01T10:32:27;5.70;;;0.90;;
64500;SDS011;50874;24.150;-110.320;2023-03-01T10:34:54;1.95;;;0.60;;
64500;SDS011;50874;24.150;-110.320;2023-03-01T10:37:22;8.13;;;1.05;;
64500;SDS011;50874;24.150;-110.320;2023-03-01T10:39:58;2.13;;;1.17;;
64500;SDS011;50874;24.150;-110.320;2023-03-01T10:42:46;4.97;;;0.93;;
64500;SDS011;50874;24.150;-110.320;2023-03-01T10:47:47;7.65;;;0.93;;
64500;SDS011;50874;24.150;-110.320;2023-03-01T10:50:37;7.78;;;0.82;;
64500;SDS011;50874;24.150;-110.320;2023-03-01T10:53:27;1.77;;;0.88;;
64500;SDS011;50874;24.150;-110.320;2023-03-01T10:55:59;9.93;;;1.15;;
64500;SDS011;50874;24.150;-110.320;2023-03-01T10:58:28;3.85;;;1.10;;
64500;SDS011;50874;24.150;-110.320;2023-03-01T11:00:57;5.00;;;0.63;;
64500;SDS011;50874;24.150;-110.320;2023-03-01T11:03:29;11.57;;;1.45;;
64500;SDS011;50874;24.150;-110.320;2023-03-01T11:05:59;1.67;;;0.50;;
64500;SDS011;50874;24.150;-110.320;2023-03-01T11:08:47;4.95;;;0.70;;
64500;SDS011;50874;24.150;-110.320;2023-03-01T11:13:50;1.92;;;0.52;;
64500;SDS011;50874;24.150;-110.320;2023-03-01T11:16:22;7.05;;;1.00;;
64500;SDS011;50874;24.150;-110.320;2023-03-01T11:18:57;2.13;;;0.65;;
64500;SDS011;50874;24.150;-110.320;2023-03-01T11:21:31;3.78;;;0.88;;
64500;SDS011;50874;24.150;-110.320;2023-03-01T11:24:01;3.60;;;0.90;;
64500;SDS011;50874;24.150;-110.320;2023-03-01T11:26:29;4.60;;;0.70;;
64500;SDS011;50874;24.150;-110.320;2023-03-01T11:29:02;3.55;;;0.85;;
64500;SDS011;50874;24.150;-110.320;2023-03-01T11:31:32;3.65;;;0.65;;
64500;SDS011;50874;24.150;-110.320;2023-03-01T11:34:02;5.13;;;1.13;;
64500;SDS011;50874;24.150;-110.320;2023-03-01T11:42:02;2.90;;;0.95;;
64500;SDS011;50874;24.150;-110.320;2023-03-01T11:44:33;2.45;;;0.75;;
64500;SDS011;50874;24.150;-110.320;2023-03-01T11:49:39;1.25;;;0.50;;
64500;SDS011;50874;24.150;-110.320;2023-03-01T12:06:09;3.75;;;0.40;;
64500;SDS011;50874;24.150;-110.320;2023-03-01T12:22:32;12.55;;;1.50;;
64500;SDS011;50874;24.150;-110.320;2023-03-01T12:27:41;3.67;;;0.75;;
64500;SDS011;50874;24.150;-110.320;2023-03-01T12:41:43;12.55;;;1.63;;
64500;SDS011;50874;24.150;-110.320;2023-03-01T12:44:23;7.03;;;1.33;;
64500;SDS011;50874;24.150;-110.320;2023-03-01T12:47:07;10.05;;;1.20;;
64500;SDS011;50874;24.150;-110.320;2023-03-01T12:49:54;10.10;;;1.75;;
64500;SDS011;50874;24.150;-110.320;2023-03-01T12:52:55;10.50;;;2.28;;
64500;SDS011;50874;24.150;-110.320;2023-03-01T12:55:29;32.33;;;4.28;;
64500;SDS011;50874;24.150;-110.320;2023-03-01T13:01:16;41.42;;;4.97;;
64500;SDS011;50874;24.150;-110.320;2023-03-01T13:03:48;36.42;;;5.18;;
64500;SDS011;50874;24.150;-110.320;2023-03-01T13:06:40;27.48;;;4.63;;
64500;SDS011;50874;24.150;-110.320;2023-03-01T13:11:46;26.67;;;3.30;;
64500;SDS011;50874;24.150;-110.320;2023-03-01T13:16:51;24.77;;;2.22;;
64500;SDS011;50874;24.150;-110.320;2023-03-01T13:19:19;17.17;;;2.30;;
64500;SDS011;50874;24.150;-110.320;2023-03-01T13:21:57;14.80;;;1.88;;
64500;SDS011;50874;24.150;-110.320;2023-03-01T13:24:40;17.45;;;2.40;;
64500;SDS011;50874;24.150;-110.320;2023-03-01T13:29:51;35.42;;;3.75;;
64500;SDS011;50874;24.150;-110.320;2023-03-01T13:34:46;56.95;;;6.78;;
64500;SDS011;50874;24.150;-110.320;2023-03-01T13:37:28;80.43;;;8.25;;
64500;SDS011;50874;24.150;-110.320;2023-03-01T13:39:57;89.20;;;8.18;;
64500;SDS011;50874;24.150;-110.320;2023-03-01T13:45:02;66.65;;;6.95;;
64500;SDS011;50874;24.150;-110.320;2023-03-01T13:47:30;61.60;;;7.80;;
64500;SDS011;50874;24.150;-110.320;2023-03-01T13:50:00;91.05;;;9.50;;
64500;SDS011;50874;24.150;-110.320;2023-03-01T13:55:20;335.92;;;30.35;;
64500;SDS011;50874;24.150;-110.320;2023-03-01T13:57:59;250.60;;;23.70;;
64500;SDS011;50874;24.150;-110.320;2023-03-01T14:00:33;353.67;;;30.88;;
64500;SDS011;50874;24.150;-110.320;2023-03-01T14:03:08;340.63;;;29.92;;
64500;SDS011;50874;24.150;-110.320;2023-03-01T14:08:38;47.08;;;5.78;;
64500;SDS011;50874;24.150;-110.320;2023-03-01T14:19:36;206.23;;;22.75;;
64500;SDS011;50874;24.150;-110.320;2023-03-01T14:22:18;215.27;;;22.17;;
64500;SDS011;50874;24.150;-110.320;2023-03-01T14:24:47;124.93;;;13.35;;
64500;SDS011;50874;24.150;-110.320;2023-03-01T14:27:16;84.13;;;10.60;;
64500;SDS011;50874;24.150;-110.320;2023-03-01T14:29:43;80.82;;;8.50;;
64500;SDS011;50874;24.150;-110.320;2023-03-01T14:32:20;83.82;;;8.98;;
64500;SDS011;50874;24.150;-110.320;2023-03-01T14:34:49;82.50;;;11.02;;
64500;SDS011;50874;24.150;-110.320;2023-03-01T14:39:54;94.68;;;10.43;;
64500;SDS011;50874;24.150;-110.320;2023-03-01T14:42:22;138.02;;;15.98;;
64500;SDS011;50874;24.150;-110.320;2023-03-01T14:44:52;158.25;;;18.55;;
64500;SDS011;50874;24.150;-110.320;2023-03-01T14:47:28;185.23;;;20.45;;
64500;SDS011;50874;24.150;-110.320;2023-03-01T14:50:01;372.08;;;39.33;;
64500;SDS011;50874;24.150;-110.320;2023-03-01T14:52:46;241.98;;;23.80;;
64500;SDS011;50874;24.150;-110.320;2023-03-01T14:55:19;247.35;;;28.08;;
64500;SDS011;50874;24.150;-110.320;2023-03-01T14:57:57;230.75;;;22.98;;
64500;SDS011;50874;24.150;-110.320;2023-03-01T15:00:28;371.17;;;37.33;;
64500;SDS011;50874;24.150;-110.320;2023-03-01T15:03:07;467.58;;;47.97;;
64500;SDS011;50874;24.150;-110.320;2023-03-01T15:05:39;241.65;;;23.00;;
64500;SDS011;50874;24.150;-110.320;2023-03-01T15:08:07;162.82;;;19.17;;
64500;SDS011;50874;24.150;-110.320;2023-03-01T15:10:59;126.57;;;14.25;;
64500;SDS011;50874;24.150;-110.320;2023-03-01T15:13:32;132.85;;;14.02;;
64500;SDS011;50874;24.150;-110.320;2023-03-01T15:16:02;104.82;;;11.73;;
64500;SDS011;50874;24.150;-110.320;2023-03-01T15:18:37;157.20;;;21.10;;
64500;SDS011;50874;24.150;-110.320;2023-03-01T15:27:12;72.88;;;9.80;;
64500;SDS011;50874;24.150;-110.320;2023-03-01T15:29:39;60.92;;;9.13;;
64500;SDS011;50874;24.150;-110.320;2023-03-01T15:34:53;55.70;;;17.33;;
64500;SDS011;50874;24.150;-110.320;2023-03-01T15:40:26;48.90;;;8.18;;
64500;SDS011;50874;24.150;-110.320;2023-03-01T15:43:01;53.95;;;7.40;;
64500;SDS011;50874;24.150;-110.320;2023-03-01T15:45:30;26.98;;;4.07;;
64500;SDS011;50874;24.150;-110.320;2023-03-01T15:48:02;56.65;;;5.70;;
64500;SDS011;50874;24.150;-110.320;2023-03-01T15:50:32;92.65;;;10.65;;
64500;SDS011;50874;24.150;-110.320;2023-03-01T15:53:06;113.03;;;10.95;;
64500;SDS011;50874;24.150;-110.320;2023-03-01T15:55:36;58.38;;;6.43;;
64500;SDS011;50874;24.150;-110.320;2023-03-01T16:00:49;27.08;;;2.05;;
64500;SDS011;50874;24.150;-110.320;2023-03-01T16:03:21;16.67;;;2.45;;
64500;SDS011;50874;24.150;-110.320;2023-03-01T16:05:48;24.58;;;2.50;;
64500;SDS011;50874;24.150;-110.320;2023-03-01T16:08:18;20.27;;;3.20;;
64500;SDS011;50874;24.150;-110.320;2023-03-01T16:10:45;28.27;;;3.72;;
64500;SDS011;50874;24.150;-110.320;2023-03-01T16:13:16;20.60;;;2.90;;
64500;SDS011;50874;24.150;-110.320;2023-03-01T16:15:43;14.27;;;2.35;;
64500;SDS011;50874;24.150;-110.320;2023-03-01T16:18:09;23.27;;;2.53;;
64500;SDS011;50874;24.150;-110.320;2023-03-01T16:20:37;16.67;;;2.88;;
64500;SDS011;50874;24.150;-110.320;2023-03-01T16:23:05;20.52;;;2.53;;
64500;SDS011;50874;24.150;-110.320;2023-03-01T16:25:32;31.50;;;3.25;;
64500;SDS011;50874;24.150;-110.320;2023-03-01T16:28:03;16.30;;;2.30;;
64500;SDS011;50874;24.150;-110.320;2023-03-01T16:30:34;16.15;;;2.40;;
64500;SDS011;50874;24.150;-110.320;2023-03-01T16:33:01;22.42;;;2.13;;
64500;SDS011;50874;24.150;-110.320;2023-03-01T16:35:31;16.65;;;2.58;;
64500;SDS011;50874;24.150;-110.320;2023-03-01T16:37:59;14.15;;;2.20;;
64500;SDS011;50874;24.150;-110.320;2023-03-01T16:40:26;9.93;;;2.22;;
64500;SDS011;50874;24.150;-110.320;2023-03-01T16:42:54;16.63;;;2.03;;